Time;durP1;ratioP1;P1;durP2;ratioP2;P2;SDS_P1;SDS_P2;PMS_P1;PMS_P2;Temp;Humidity;BMP_temperature;BMP_pressure;BME280_temperature;BME280_humidity;BME280_pressure;Samples;Min_cycle;Max_cycle;Signal;HPM_P1;HPM_P2
2024/02/17 00:00:31;;;;;;;2.25;1.88;;;;;;;14.93;66.49;97888.00;4946747;28;20047;-85
2024/02/17 00:02:58;;;;;;;2.92;2.05;;;;;;;14.95;67.02;97896.41;5025137;28;20557;-85
2024/02/17 00:05:24;;;;;;;2.85;2.10;;;;;;;14.94;66.43;97894.81;4968192;28;20039;-86
2024/02/17 00:07:49;;;;;;;3.30;2.55;;;;;;;14.95;67.05;97896.41;4946208;28;20054;-86
2024/02/17 00:10:15;;;;;;;2.72;2.00;;;;;;;14.93;66.35;97904.53;4947616;28;20030;-85
2024/02/17 00:12:40;;;;;;;4.32;2.53;;;;;;;14.86;66.78;97901.34;4948502;28;20039;-86
2024/02/17 00:15:06;;;;;;;4.30;2.42;;;;;;;14.94;66.89;97910.53;4948418;28;20049;-87
2024/02/17 00:17:31;;;;;;;2.72;2.30;;;;;;;14.92;66.50;97908.16;4966272;28;20035;-86
2024/02/17 00:19:57;;;;;;;3.75;2.70;;;;;;;14.97;65.94;97910.03;4947073;28;20070;-87
2024/02/17 00:22:22;;;;;;;3.67;2.75;;;;;;;14.96;66.76;97916.34;4928786;28;20043;-85
2024/02/17 00:24:48;;;;;;;3.45;2.65;;;;;;;14.91;66.29;97911.06;4949042;28;20494;-86
2024/02/17 00:27:13;;;;;;;2.72;2.47;;;;;;;14.92;65.78;97925.75;4964536;28;20047;-86
2024/02/17 00:29:38;;;;;;;3.33;2.45;;;;;;;14.94;66.61;97932.34;4947173;28;20027;-81
2024/02/17 00:32:04;;;;;;;4.18;2.97;;;;;;;14.91;67.16;97937.28;4954284;28;20070;-81
2024/02/17 00:34:30;;;;;;;3.13;2.60;;;;;;;14.96;66.25;97932.06;4949041;28;20043;-81
2024/02/17 00:36:55;;;;;;;2.28;1.98;;;;;;;14.99;66.27;97928.94;4946047;28;20062;-81
2024/02/17 00:39:20;;;;;;;3.30;2.40;;;;;;;15.04;65.94;97938.66;4964572;28;20047;-81
2024/02/17 00:41:46;;;;;;;3.63;2.65;;;;;;;15.03;66.64;97929.19;4961123;28;20038;-81
2024/02/17 00:44:12;;;;;;;3.13;2.53;;;;;;;15.08;65.84;97934.47;4946926;28;20479;-81
2024/02/17 00:46:37;;;;;;;2.67;2.22;;;;;;;15.05;66.48;97930.53;4945911;28;20046;-81
2024/02/17 00:49:03;;;;;;;3.45;2.53;;;;;;;15.03;66.50;97937.88;4932234;28;20039;-81
2024/02/17 00:51:28;;;;;;;2.55;2.33;;;;;;;15.01;66.22;97942.59;4940977;28;20031;-81
2024/02/17 00:53:53;;;;;;;3.25;2.30;;;;;;;14.97;66.81;97933.63;4964730;28;20039;-81
2024/02/17 00:56:21;;;;;;;3.17;2.47;;;;;;;15.06;66.37;97945.25;4947095;28;20082;-81
2024/02/17 00:58:46;;;;;;;3.22;2.63;;;;;;;15.00;66.46;97945.47;4974822;28;20506;-81
2024/02/17 01:01:12;;;;;;;3.00;2.70;;;;;;;15.02;66.31;97949.41;4930278;28;20114;-80
2024/02/17 01:03:37;;;;;;;3.20;2.33;;;;;;;14.98;66.10;97957.00;4951711;28;20463;-81
2024/02/17 01:06:03;;;;;;;3.33;2.63;;;;;;;14.98;66.68;97951.75;4964585;28;20038;-81
2024/02/17 01:08:29;;;;;;;3.10;2.80;;;;;;;14.96;66.57;97955.69;4962978;28;20047;-81
2024/02/17 01:10:54;;;;;;;2.40;2.20;;;;;;;14.95;66.72;97961.97;4944015;28;20031;-81
2024/02/17 01:13:20;;;;;;;2.55;2.35;;;;;;;14.99;66.25;97968.25;5014769;28;20031;-81
2024/02/17 01:15:45;;;;;;;3.20;2.50;;;;;;;14.98;66.53;97970.09;4948450;28;20038;-81
2024/02/17 01:18:10;;;;;;;3.92;2.95;;;;;;;14.99;65.52;97976.13;4963698;28;20118;-82
2024/02/17 01:20:36;;;;;;;2.65;2.22;;;;;;;14.96;65.84;97972.19;4948001;28;20513;-81
2024/02/17 01:23:01;;;;;;;2.85;2.50;;;;;;;14.92;66.46;97978.19;4964755;28;20042;-81
2024/02/17 01:25:27;;;;;;;3.42;2.65;;;;;;;14.85;65.95;97970.53;4938058;28;20562;-81
2024/02/17 01:27:52;;;;;;;3.00;2.50;;;;;;;14.87;66.63;97978.94;4968273;28;20104;-81
2024/02/17 01:30:18;;;;;;;3.28;2.75;;;;;;;14.73;66.14;97970.72;4967164;28;20043;-81
2024/02/17 01:32:43;;;;;;;3.45;2.60;;;;;;;14.79;65.74;97977.59;5018205;28;20041;-81
2024/02/17 01:35:09;;;;;;;2.78;2.20;;;;;;;14.78;66.05;97985.69;4942923;28;20484;-81
2024/02/17 01:37:34;;;;;;;3.55;2.45;;;;;;;14.72;66.46;97982.25;4962921;28;20034;-81
2024/02/17 01:40:00;;;;;;;2.67;2.30;;;;;;;14.69;66.45;97984.59;4968026;28;20519;-81
2024/02/17 01:42:25;;;;;;;3.83;2.80;;;;;;;14.63;65.52;97991.59;4947621;28;20080;-82
2024/02/17 01:44:51;;;;;;;3.72;2.55;;;;;;;14.59;65.17;97998.41;4966994;28;20559;-81
2024/02/17 01:47:16;;;;;;;3.53;2.80;;;;;;;14.55;66.02;98003.31;4949769;28;20095;-81
2024/02/17 01:49:42;;;;;;;3.03;2.70;;;;;;;14.57;65.37;98005.69;4960510;28;20709;-88
2024/02/17 01:52:08;;;;;;;4.85;3.10;;;;;;;14.60;65.77;98007.84;4967982;28;20036;-88
2024/02/17 01:54:33;;;;;;;3.58;2.45;;;;;;;14.60;64.46;98013.88;4941733;28;20035;-89
2024/02/17 01:57:00;;;;;;;3.65;2.65;;;;;;;14.57;64.71;98008.31;4953643;28;20049;-89
2024/02/17 01:59:28;;;;;;;3.10;2.65;;;;;;;14.64;64.35;98016.78;4943649;28;20129;-81
2024/02/17 02:01:54;;;;;;;3.88;2.95;;;;;;;14.54;65.15;98016.66;4964167;28;20495;-82
2024/02/17 02:04:20;;;;;;;3.70;2.78;;;;;;;14.43;65.05;98013.19;4948756;28;20031;-82
2024/02/17 02:06:46;;;;;;;3.67;3.28;;;;;;;14.38;64.79;98016.53;4950903;28;20080;-81
2024/02/17 02:09:14;;;;;;;3.35;2.60;;;;;;;14.34;65.07;98019.88;4950522;28;20564;-82
2024/02/17 02:11:39;;;;;;;4.43;2.70;;;;;;;14.26;64.69;98015.91;4964516;28;20054;-81
2024/02/17 02:14:18;;;;;;;3.25;2.53;;;;;;;14.40;64.61;98021.53;4964197;28;20484;-81
2024/02/17 02:16:44;;;;;;;3.67;3.08;;;;;;;14.31;64.68;98029.03;4949902;28;20112;-81
2024/02/17 02:19:10;;;;;;;4.82;3.55;;;;;;;14.29;64.24;98025.06;4964628;28;20039;-81
2024/02/17 02:21:37;;;;;;;3.60;3.05;;;;;;;14.29;63.79;98023.28;4966072;28;20145;-81
2024/02/17 02:24:02;;;;;;;3.88;2.88;;;;;;;14.23;64.17;98029.47;4967710;28;20483;-81
2024/02/17 02:26:28;;;;;;;3.72;2.83;;;;;;;14.22;64.22;98035.75;4931185;29;20040;-82
2024/02/17 02:28:54;;;;;;;4.50;3.30;;;;;;;14.22;64.37;98033.13;5046593;28;20042;-81
2024/02/17 02:31:19;;;;;;;4.28;2.90;;;;;;;14.21;63.54;98037.59;4967210;28;20034;-81
2024/02/17 02:33:47;;;;;;;3.72;2.97;;;;;;;14.14;63.69;98034.38;4950376;28;20066;-82
2024/02/17 02:36:13;;;;;;;4.00;3.20;;;;;;;14.17;64.29;98039.13;4962534;28;20027;-81
2024/02/17 02:38:38;;;;;;;3.53;2.95;;;;;;;14.13;63.09;98038.00;5044526;28;20394;-81
2024/02/17 02:41:04;;;;;;;4.18;3.15;;;;;;;14.14;64.10;98055.31;4946714;28;20054;-81
2024/02/17 02:43:29;;;;;;;4.43;3.50;;;;;;;14.14;63.55;98051.91;4963096;28;20499;-81
2024/02/17 02:45:54;;;;;;;4.38;3.53;;;;;;;14.13;63.47;98045.88;5013029;28;20483;-81
2024/02/17 02:48:20;;;;;;;4.60;2.85;;;;;;;14.04;63.35;98044.72;5029129;28;20117;-81
2024/02/17 02:50:45;;;;;;;3.95;2.78;;;;;;;13.99;63.18;98048.06;4932842;28;20084;-81
2024/02/17 02:53:11;;;;;;;3.80;2.97;;;;;;;14.00;63.22;98065.38;4926024;28;20061;-81
2024/02/17 02:55:36;;;;;;;4.30;3.00;;;;;;;13.93;63.68;98067.41;4964620;28;20034;-81
2024/02/17 02:58:01;;;;;;;4.32;3.40;;;;;;;13.86;64.04;98072.00;4960090;28;20117;-81
2024/02/17 03:00:27;;;;;;;4.13;2.90;;;;;;;13.82;63.76;98070.91;4966822;28;20552;-87
2024/02/17 03:02:52;;;;;;;5.38;3.08;;;;;;;13.83;64.21;98075.13;4950630;28;20437;-88
2024/02/17 03:05:18;;;;;;;3.85;2.92;;;;;;;13.80;64.14;98078.22;4932991;28;20097;-88
2024/02/17 03:07:43;;;;;;;4.88;3.50;;;;;;;13.77;63.65;98086.56;4950712;28;20118;-89
2024/02/17 03:10:08;;;;;;;4.07;2.90;;;;;;;13.79;63.63;98087.09;4949718;28;20277;-89
2024/02/17 03:12:34;;;;;;;3.67;2.92;;;;;;;13.65;63.28;98084.03;4934640;28;20506;-88
2024/02/17 03:15:02;;;;;;;4.05;2.95;;;;;;;13.67;64.36;98098.47;4949674;28;20398;-87
2024/02/17 03:17:28;;;;;;;4.93;3.30;;;;;;;13.62;63.55;98095.78;4951355;28;20050;-86
2024/02/17 03:19:53;;;;;;;4.28;3.22;;;;;;;13.59;63.75;98106.75;4959005;28;20031;-88
2024/02/17 03:22:19;;;;;;;6.78;3.42;;;;;;;13.60;63.54;98099.66;4964391;28;20043;-89
2024/02/17 03:24:48;;;;;;;4.53;3.20;;;;;;;13.63;63.44;98113.06;4966564;28;20075;-86
2024/02/17 03:27:13;;;;;;;4.88;3.65;;;;;;;13.58;63.62;98109.59;4936070;28;20536;-87
2024/02/17 03:29:39;;;;;;;5.35;3.42;;;;;;;13.48;63.36;98113.63;4969954;28;20163;-87
2024/02/17 03:32:05;;;;;;;5.80;3.53;;;;;;;13.43;64.06;98128.47;4948802;28;20065;-86
2024/02/17 03:34:34;;;;;;;4.53;3.35;;;;;;;13.42;64.00;98111.22;4950793;28;20030;-88
2024/02/17 03:36:59;;;;;;;4.35;3.58;;;;;;;13.34;64.36;98130.69;4965293;28;20047;-87
2024/02/17 03:39:25;;;;;;;4.60;3.17;;;;;;;13.39;63.84;98135.22;4963893;28;20457;-88
2024/02/17 03:41:51;;;;;;;5.07;3.67;;;;;;;13.29;64.33;98125.34;4928810;28;20030;-87
2024/02/17 03:44:17;;;;;;;4.95;3.90;;;;;;;13.38;63.75;98131.00;4942445;28;20034;-87
2024/02/17 03:46:43;;;;;;;6.03;3.95;;;;;;;13.35;63.78;98136.72;4957324;28;20037;-88
2024/02/17 03:49:09;;;;;;;5.95;3.70;;;;;;;13.36;62.53;98139.09;4942857;28;20038;-89
2024/02/17 03:51:35;;;;;;;4.47;2.92;;;;;;;13.17;63.71;98145.56;4942625;28;20035;-89
2024/02/17 03:54:00;;;;;;;4.13;2.88;;;;;;;13.07;63.04;98146.19;5016438;28;20058;-87
2024/02/17 03:56:25;;;;;;;3.85;2.60;;;;;;;13.03;63.65;98161.56;4961149;28;20043;-83
2024/02/17 03:58:51;;;;;;;5.20;3.50;;;;;;;12.97;63.64;98146.00;4928806;28;20350;-87
2024/02/17 04:01:16;;;;;;;5.32;3.88;;;;;;;12.98;64.12;98158.06;4946937;28;20076;-89
2024/02/17 04:03:42;;;;;;;5.07;3.25;;;;;;;12.99;64.89;98159.63;4995000;28;20122;-83
2024/02/17 04:06:08;;;;;;;5.70;3.72;;;;;;;13.00;63.99;98161.22;4942170;28;20071;-84
2024/02/17 04:08:34;;;;;;;6.15;3.97;;;;;;;13.02;64.65;98165.22;4947289;28;20027;-86
2024/02/17 04:11:00;;;;;;;5.55;3.88;;;;;;;13.02;64.02;98165.22;5039444;28;20416;-87
2024/02/17 04:13:29;;;;;;;6.75;4.30;;;;;;;13.08;63.84;98173.91;4942496;28;20485;-88
2024/02/17 04:15:54;;;;;;;7.97;4.45;;;;;;;13.03;63.57;98181.69;4941096;28;20037;-84
2024/02/17 04:18:21;;;;;;;6.95;4.45;;;;;;;12.98;63.67;98182.38;4958342;28;20039;-85
2024/02/17 04:20:47;;;;;;;5.75;3.90;;;;;;;12.90;64.01;98187.97;4941530;28;20092;-81
2024/02/17 04:23:13;;;;;;;5.07;3.60;;;;;;;12.92;64.04;98197.19;4942060;28;20037;-81
2024/02/17 04:25:40;;;;;;;6.15;4.50;;;;;;;12.87;64.04;98199.69;4926442;28;20030;-81
2024/02/17 04:28:05;;;;;;;7.90;4.85;;;;;;;12.78;63.25;98210.75;4970720;28;20117;-81
2024/02/17 04:30:31;;;;;;;9.30;4.75;;;;;;;12.78;63.80;98203.69;4941577;28;20042;-81
2024/02/17 04:32:58;;;;;;;6.60;4.90;;;;;;;12.80;63.71;98204.28;5021238;28;20088;-81
2024/02/17 04:35:23;;;;;;;8.00;5.15;;;;;;;12.72;64.77;98209.88;4959431;28;20069;-81
2024/02/17 04:37:49;;;;;;;8.65;5.63;;;;;;;12.79;64.21;98213.13;4988446;28;20063;-81
2024/02/17 04:40:14;;;;;;;8.00;5.80;;;;;;;12.74;64.28;98216.44;4946689;28;20034;-81
2024/02/17 04:42:40;;;;;;;9.98;6.22;;;;;;;12.77;63.60;98220.41;4925837;28;20116;-81
2024/02/17 04:45:06;;;;;;;8.57;5.10;;;;;;;12.82;63.37;98232.81;4945155;28;20023;-81
2024/02/17 04:47:32;;;;;;;7.85;5.60;;;;;;;12.73;63.49;98224.50;4963095;28;20035;-81
2024/02/17 04:49:57;;;;;;;8.38;5.38;;;;;;;12.81;63.75;98229.38;4972703;28;20031;-81
2024/02/17 04:52:22;;;;;;;8.85;6.47;;;;;;;12.72;64.23;98225.56;4963156;28;20362;-81
2024/02/17 04:54:48;;;;;;;9.80;6.82;;;;;;;12.66;64.06;98226.47;4944725;28;20423;-81
2024/02/17 04:57:14;;;;;;;9.65;6.25;;;;;;;12.74;64.20;98239.97;5014111;28;20125;-81
2024/02/17 04:59:39;;;;;;;10.90;7.38;;;;;;;12.74;64.01;98245.19;4943760;28;20082;-81
2024/02/17 05:02:05;;;;;;;10.82;6.70;;;;;;;12.71;63.92;98239.63;5010267;28;20039;-81
2024/02/17 05:04:31;;;;;;;8.65;6.28;;;;;;;12.65;64.14;98237.97;4951260;28;20121;-81
2024/02/17 05:06:56;;;;;;;9.82;6.47;;;;;;;12.69;63.77;98244.28;4968163;28;20126;-80
2024/02/17 05:09:22;;;;;;;11.43;6.50;;;;;;;12.67;63.71;98252.38;4951077;28;20029;-81
2024/02/17 05:11:47;;;;;;;11.43;7.20;;;;;;;12.70;63.51;98241.47;4951142;28;20049;-81
2024/02/17 05:14:15;;;;;;;10.48;7.10;;;;;;;12.73;63.66;98248.03;4940516;28;20071;-81
2024/02/17 05:16:44;;;;;;;10.40;6.80;;;;;;;12.74;63.12;98252.25;4967558;28;20057;-81
2024/02/17 05:19:13;;;;;;;9.98;6.50;;;;;;;12.68;64.51;98251.34;4950750;28;20421;-81
2024/02/17 05:21:41;;;;;;;9.20;6.32;;;;;;;12.58;63.37;98251.16;4950207;28;20505;-81
2024/02/17 05:24:08;;;;;;;11.13;7.15;;;;;;;12.54;63.31;98256.03;4955978;28;20023;-81
2024/02/17 05:26:37;;;;;;;10.88;6.78;;;;;;;12.53;62.90;98257.06;4967108;28;20042;-81
2024/02/17 05:29:06;;;;;;;9.77;6.40;;;;;;;12.51;62.58;98259.09;4945054;28;20487;-81
2024/02/17 05:31:32;;;;;;;8.75;5.57;;;;;;;12.39;62.45;98266.16;4967472;28;20509;-81
2024/02/17 05:33:57;;;;;;;6.65;4.50;;;;;;;12.19;62.48;98261.28;4951847;28;20080;-80
2024/02/17 05:36:22;;;;;;;6.78;4.68;;;;;;;12.07;62.36;98276.94;4967049;28;20043;-81
2024/02/17 05:38:48;;;;;;;4.97;3.90;;;;;;;12.04;61.68;98276.63;4966491;28;20136;-81
2024/02/17 05:41:13;;;;;;;6.50;3.38;;;;;;;11.78;61.18;98282.00;4964353;28;20066;-81
2024/02/17 05:43:39;;;;;;;5.75;3.80;;;;;;;11.54;61.32;98285.56;4938602;28;20475;-80
2024/02/17 05:46:05;;;;;;;5.55;3.58;;;;;;;11.48;61.98;98289.88;4962350;28;20085;-81
2024/02/17 05:48:30;;;;;;;4.60;3.47;;;;;;;11.34;61.20;98288.44;4967304;28;20045;-81
2024/02/17 05:50:55;;;;;;;5.80;3.83;;;;;;;11.25;62.19;98298.41;4943917;28;20034;-81
2024/02/17 05:53:21;;;;;;;5.90;4.03;;;;;;;11.25;61.90;98293.97;4975761;28;20238;-81
2024/02/17 05:55:46;;;;;;;6.25;3.83;;;;;;;11.31;61.06;98304.53;4977040;28;20062;-81
2024/02/17 05:58:12;;;;;;;5.70;3.00;;;;;;;11.21;60.22;98292.03;4952154;28;20125;-80
2024/02/17 06:00:37;;;;;;;3.85;2.45;;;;;;;11.13;60.43;98300.94;4950315;28;20046;-81
2024/02/17 06:03:03;;;;;;;2.80;1.45;;;;;;;10.92;60.03;98315.22;4931502;28;20046;-80
2024/02/17 06:05:29;;;;;;;1.83;1.42;;;;;;;10.70;61.25;98316.69;5045418;28;20039;-81
2024/02/17 06:07:54;;;;;;;2.45;1.10;;;;;;;10.59;61.01;98310.38;4964188;28;20037;-81
2024/02/17 06:10:20;;;;;;;1.05;0.63;;;;;;;10.59;61.08;98320.78;4961625;28;20055;-81
2024/02/17 06:12:45;;;;;;;1.05;0.85;;;;;;;10.54;61.41;98313.63;4960115;28;20031;-81
2024/02/17 06:15:11;;;;;;;0.77;0.60;;;;;;;10.44;60.95;98319.34;4941608;28;20042;-81
2024/02/17 06:17:42;;;;;;;0.80;0.60;;;;;;;10.38;60.05;98324.59;4966119;28;20039;-81
2024/02/17 06:22:56;;;;;;;1.40;1.13;;;;;;;10.13;60.59;98328.00;4966623;28;20035;-81
2024/02/17 06:25:22;;;;;;;1.90;1.33;;;;;;;10.07;61.02;98336.63;4957020;28;20038;-81
2024/02/17 06:27:47;;;;;;;1.83;1.25;;;;;;;10.13;60.76;98328.00;4937477;28;20066;-80
2024/02/17 06:30:14;;;;;;;2.22;1.38;;;;;;;10.21;60.13;98335.53;4969870;28;20398;-80
2024/02/17 06:32:43;;;;;;;3.63;1.60;;;;;;;10.30;60.54;98336.84;5043264;28;20035;-80
2024/02/17 06:35:09;;;;;;;5.25;3.75;;;;;;;10.27;60.40;98339.88;4950761;28;20030;-81
2024/02/17 06:37:35;;;;;;;4.32;3.05;;;;;;;10.26;60.59;98346.09;4947967;28;20139;-81
2024/02/17 06:40:01;;;;;;;2.92;1.80;;;;;;;10.20;60.38;98346.94;4966236;28;20212;-81
2024/02/17 06:42:26;;;;;;;1.73;1.17;;;;;;;10.21;60.98;98353.75;4947468;28;20051;-81
2024/02/17 06:44:51;;;;;;;2.30;1.30;;;;;;;10.07;61.31;98344.44;4948334;28;20035;-81
2024/02/17 06:47:17;;;;;;;2.45;1.00;;;;;;;10.18;60.86;98359.38;5007876;28;20034;-81
2024/02/17 06:49:42;;;;;;;4.03;1.50;;;;;;;10.09;61.55;98358.03;4944465;28;20030;-81
2024/02/17 06:52:08;;;;;;;2.75;1.40;;;;;;;10.07;61.55;98370.47;5022099;28;20120;-81
2024/02/17 06:54:33;;;;;;;1.95;0.93;;;;;;;9.98;62.12;98366.53;4951356;28;20524;-81
2024/02/17 06:56:59;;;;;;;2.78;1.40;;;;;;;10.03;62.18;98377.91;4949095;28;20545;-81
2024/02/17 06:59:24;;;;;;;2.83;1.25;;;;;;;10.02;61.37;98365.09;4952118;28;20120;-80
2024/02/17 07:01:49;;;;;;;1.98;1.13;;;;;;;10.08;61.45;98385.06;4963715;28;20047;-81
2024/02/17 07:04:18;;;;;;;2.60;1.85;;;;;;;10.11;61.54;98390.66;4949555;28;20027;-81
2024/02/17 07:06:43;;;;;;;2.38;1.40;;;;;;;10.09;61.89;98389.25;4952556;28;20067;-81
2024/02/17 07:09:14;;;;;;;10.25;2.20;;;;;;;10.14;61.75;98402.44;4947111;28;20757;-81
2024/02/17 07:11:40;;;;;;;5.80;1.77;;;;;;;10.06;62.30;98408.69;4935144;28;20030;-81
2024/02/17 07:14:05;;;;;;;2.63;1.70;;;;;;;10.04;62.72;98410.72;4952932;28;20251;-81
2024/02/17 07:16:31;;;;;;;3.35;2.25;;;;;;;10.05;62.75;98419.31;4950412;28;20050;-81
2024/02/17 07:18:59;;;;;;;2.95;2.42;;;;;;;10.02;62.84;98417.13;4965314;28;20030;-81
2024/02/17 07:21:25;;;;;;;3.30;2.00;;;;;;;10.04;62.85;98422.91;4945489;28;20038;-81
2024/02/17 07:23:50;;;;;;;4.90;2.45;;;;;;;10.02;64.01;98420.53;5041393;28;20027;-81
2024/02/17 07:26:16;;;;;;;4.85;3.20;;;;;;;10.12;63.24;98433.09;4964920;28;20034;-80
2024/02/17 07:28:41;;;;;;;4.65;3.35;;;;;;;10.10;63.10;98427.28;4985865;28;20490;-81
2024/02/17 07:31:07;;;;;;;5.95;3.72;;;;;;;10.17;63.33;98425.44;4947255;28;20081;-81
2024/02/17 07:33:32;;;;;;;6.68;3.80;;;;;;;10.39;62.25;98449.34;4965170;28;20058;-80
2024/02/17 07:35:58;;;;;;;3.75;2.72;;;;;;;10.36;61.85;98441.97;4946404;28;20461;-81
2024/02/17 07:38:23;;;;;;;2.70;1.77;;;;;;;10.37;61.79;98450.59;4948582;28;20522;-81
2024/02/17 07:40:49;;;;;;;2.72;1.27;;;;;;;10.38;61.22;98457.38;4963605;28;20041;-81
2024/02/17 07:43:14;;;;;;;2.67;1.00;;;;;;;10.24;61.52;98454.03;4964914;28;20110;-81
2024/02/17 07:45:40;;;;;;;1.38;0.88;;;;;;;10.28;60.54;98453.41;4930446;28;20483;-81
2024/02/17 07:48:06;;;;;;;2.45;1.25;;;;;;;10.33;60.62;98467.63;4961717;28;20035;-81
2024/02/17 07:50:31;;;;;;;2.08;1.23;;;;;;;10.31;60.91;98462.59;4926944;28;20084;-86
2024/02/17 07:52:57;;;;;;;3.47;1.85;;;;;;;10.42;61.03;98476.78;4962995;28;20061;-88
2024/02/17 07:55:23;;;;;;;2.67;1.50;;;;;;;10.51;61.91;98488.53;4932787;28;20047;-88
2024/02/17 07:57:49;;;;;;;3.88;2.17;;;;;;;10.52;62.09;98490.13;4959100;28;20057;-87
2024/02/17 08:00:14;;;;;;;2.53;1.58;;;;;;;10.57;62.48;98481.69;4935082;28;20047;-88
2024/02/17 08:02:41;;;;;;;3.15;2.08;;;;;;;10.61;62.25;98491.47;4949486;28;20041;-88
2024/02/17 08:05:07;;;;;;;2.88;1.92;;;;;;;10.63;63.39;98497.25;4950876;28;20046;-86
2024/02/17 08:07:33;;;;;;;19.90;3.28;;;;;;;10.54;63.30;98497.72;4964536;28;20393;-85
2024/02/17 08:09:59;;;;;;;6.07;2.40;;;;;;;10.63;63.51;98505.06;4963629;28;20084;-87
2024/02/17 08:12:24;;;;;;;4.25;2.80;;;;;;;10.72;63.97;98512.63;4963215;28;20673;-87
2024/02/17 08:14:52;;;;;;;4.15;2.30;;;;;;;10.73;64.61;98516.81;4962875;28;20146;-88
2024/02/17 08:17:17;;;;;;;3.88;2.60;;;;;;;10.75;64.04;98522.63;4950022;28;20073;-86
2024/02/17 08:19:42;;;;;;;3.72;2.58;;;;;;;10.85;64.72;98530.78;4928484;28;20074;-87
2024/02/17 08:22:08;;;;;;;4.13;2.50;;;;;;;10.94;64.40;98542.50;4931531;28;20536;-88
2024/02/17 08:24:33;;;;;;;4.30;3.05;;;;;;;11.10;63.72;98535.19;4964867;28;20035;-88
2024/02/17 08:26:58;;;;;;;4.13;2.83;;;;;;;11.17;63.58;98541.94;4968291;28;20578;-86
2024/02/17 08:29:24;;;;;;;4.90;3.22;;;;;;;11.14;63.84;98534.53;4959164;28;20031;-84
2024/02/17 08:31:52;;;;;;;23.63;4.18;;;;;;;11.29;63.62;98546.44;4961828;28;20324;-88
2024/02/17 08:34:18;;;;;;;5.50;3.22;;;;;;;11.36;63.49;98541.94;4946115;28;20035;-86
2024/02/17 08:36:43;;;;;;;5.85;3.67;;;;;;;11.44;63.58;98552.91;5017237;28;20065;-88
2024/02/17 08:39:14;;;;;;;21.42;4.75;;;;;;;11.39;63.45;98557.97;4936888;28;20022;-88
2024/02/17 08:41:39;;;;;;;4.63;3.20;;;;;;;11.50;63.07;98566.91;5030860;28;20399;-88
2024/02/17 08:44:04;;;;;;;5.97;3.80;;;;;;;11.52;63.45;98561.47;4948719;28;20100;-87
2024/02/17 08:46:30;;;;;;;6.15;3.83;;;;;;;11.64;63.85;98572.00;4932996;28;20482;-85
2024/02/17 08:48:55;;;;;;;6.00;3.83;;;;;;;11.58;63.87;98566.63;4934560;28;20034;-87
2024/02/17 08:51:20;;;;;;;5.97;4.00;;;;;;;11.63;64.13;98571.19;4967387;28;20096;-86
2024/02/17 08:53:46;;;;;;;9.13;4.13;;;;;;;11.75;63.54;98582.50;4952260;28;20038;-87
2024/02/17 08:56:11;;;;;;;6.05;4.50;;;;;;;11.80;62.81;98587.84;4962019;28;20042;-84
2024/02/17 08:58:37;;;;;;;5.80;4.00;;;;;;;11.76;62.77;98591.94;4969474;28;20034;-86
2024/02/17 09:01:02;;;;;;;7.43;4.50;;;;;;;11.70;63.14;98592.78;4937716;28;20061;-81
2024/02/17 09:03:28;;;;;;;6.90;4.55;;;;;;;11.75;62.74;98594.75;4992527;28;20062;-81
2024/02/17 09:05:53;;;;;;;7.25;5.05;;;;;;;11.77;63.42;98601.38;5032157;28;20111;-81
2024/02/17 09:08:18;;;;;;;7.40;5.07;;;;;;;11.74;63.51;98595.78;4945546;28;20045;-80
2024/02/17 09:10:44;;;;;;;6.43;4.68;;;;;;;11.81;62.92;98599.13;4966065;28;20039;-81
2024/02/17 09:13:09;;;;;;;7.45;4.78;;;;;;;11.74;63.65;98593.97;4949732;28;20897;-81
2024/02/17 09:15:34;;;;;;;9.13;5.50;;;;;;;11.78;64.20;98600.31;4934036;28;20629;-81
2024/02/17 09:18:00;;;;;;;10.68;6.18;;;;;;;11.76;64.84;98586.72;4948495;28;20038;-81
2024/02/17 09:20:26;;;;;;;7.50;5.22;;;;;;;11.89;65.27;98598.84;4957632;28;20037;-81
2024/02/17 09:22:52;;;;;;;9.43;6.15;;;;;;;12.00;65.50;98597.34;4965536;28;20057;-80
2024/02/17 09:25:19;;;;;;;11.00;7.15;;;;;;;12.12;65.10;98610.47;4930131;28;20031;-81
2024/02/17 09:27:44;;;;;;;8.55;5.68;;;;;;;12.32;64.78;98595.34;4950492;28;20036;-81
2024/02/17 09:30:10;;;;;;;9.70;6.40;;;;;;;12.47;65.50;98605.38;4981506;28;20043;-80
2024/02/17 09:32:35;;;;;;;11.25;6.70;;;;;;;12.66;64.63;98606.16;4950729;28;20023;-81
2024/02/17 09:35:01;;;;;;;11.95;7.25;;;;;;;12.81;64.27;98604.94;4967899;28;20031;-81
2024/02/17 09:37:27;;;;;;;11.00;7.25;;;;;;;12.89;63.41;98608.03;4966022;28;20043;-80
2024/02/17 09:39:52;;;;;;;11.48;7.72;;;;;;;12.87;64.20;98602.25;4952029;28;20364;-80
2024/02/17 09:42:18;;;;;;;12.50;7.70;;;;;;;12.90;64.12;98614.06;4949456;28;20118;-81
2024/02/17 09:44:43;;;;;;;10.15;6.95;;;;;;;12.86;63.93;98621.56;4931749;28;20165;-81
2024/02/17 09:47:08;;;;;;;12.00;7.25;;;;;;;12.93;63.46;98632.69;5029422;28;20030;-81
2024/02/17 09:49:36;;;;;;;12.27;7.50;;;;;;;12.97;64.34;98621.81;4929117;28;20103;-81
2024/02/17 09:52:01;;;;;;;12.00;8.07;;;;;;;12.96;63.49;98622.84;4962997;28;20047;-80
2024/02/17 09:54:28;;;;;;;13.23;8.00;;;;;;;12.93;64.05;98619.63;4950736;28;20039;-81
2024/02/17 09:56:54;;;;;;;12.43;8.13;;;;;;;13.06;63.97;98631.72;4949538;28;20042;-80
2024/02/17 09:59:20;;;;;;;14.68;8.43;;;;;;;13.11;62.97;98633.69;5018154;28;20371;-81
2024/02/17 10:01:48;;;;;;;14.43;8.77;;;;;;;13.08;63.12;98628.88;4942426;28;20031;-80
2024/02/17 10:04:13;;;;;;;15.57;7.97;;;;;;;13.30;63.96;98631.78;4967436;28;20034;-80
2024/02/17 10:06:38;;;;;;;13.38;8.40;;;;;;;13.41;62.55;98627.59;4951108;28;20046;-81
2024/02/17 10:09:04;;;;;;;11.95;8.27;;;;;;;13.45;63.48;98626.94;4963627;28;20038;-81
2024/02/17 10:11:32;;;;;;;14.68;8.35;;;;;;;13.49;62.16;98629.88;4950480;28;20043;-88
2024/02/17 10:14:02;;;;;;;13.07;8.73;;;;;;;13.52;62.39;98637.28;4964445;28;20077;-86
2024/02/17 10:16:29;;;;;;;10.95;7.70;;;;;;;13.47;61.87;98643.19;4960312;28;20061;-89
2024/02/17 10:18:57;;;;;;;10.90;7.15;;;;;;;13.44;61.99;98648.88;4960374;28;20039;-87
2024/02/17 10:21:23;;;;;;;12.45;7.45;;;;;;;13.39;61.63;98647.97;4965001;28;20030;-88
2024/02/17 10:23:49;;;;;;;13.25;8.27;;;;;;;13.47;61.32;98652.88;4950889;28;20359;-87
2024/02/17 10:26:15;;;;;;;10.75;8.13;;;;;;;13.51;61.58;98656.63;4942067;28;20537;-86
2024/02/17 10:28:40;;;;;;;13.30;8.18;;;;;;;13.65;61.23;98665.81;4958623;28;20079;-87
2024/02/17 10:31:06;;;;;;;11.05;7.78;;;;;;;13.70;61.00;98664.38;4946165;28;20039;-87
2024/02/17 10:33:31;;;;;;;12.93;8.18;;;;;;;13.71;61.89;98668.56;4969258;28;20046;-87
2024/02/17 10:35:59;;;;;;;13.30;8.02;;;;;;;13.87;61.49;98673.13;5013363;28;20028;-82
2024/02/17 10:38:25;;;;;;;12.95;7.38;;;;;;;13.87;60.75;98675.75;5034160;28;20057;-86
2024/02/17 10:40:51;;;;;;;12.95;8.18;;;;;;;13.89;61.38;98681.53;4966099;28;20792;-86
2024/02/17 10:43:17;;;;;;;11.73;7.63;;;;;;;13.79;61.94;98676.88;4935680;28;20475;-86
2024/02/17 10:45:43;;;;;;;12.35;7.75;;;;;;;13.87;61.36;98678.34;4966388;28;20042;-87
2024/02/17 10:48:10;;;;;;;11.98;7.38;;;;;;;14.02;60.97;98678.69;4943870;28;20027;-87
2024/02/17 10:50:38;;;;;;;11.77;8.55;;;;;;;14.11;60.28;98691.44;4965997;28;20038;-87
2024/02/17 10:53:13;;;;;;;12.63;8.63;;;;;;;14.27;60.94;98695.97;4950333;28;20027;-87
2024/02/17 10:55:39;;;;;;;11.32;7.50;;;;;;;14.39;60.78;98698.56;4961375;28;20039;-86
2024/02/17 10:58:24;;;;;;;10.82;7.50;;;;;;;14.64;59.39;98685.19;5031030;28;20039;-87
2024/02/17 11:00:50;;;;;;;9.60;7.67;;;;;;;14.93;59.86;98687.84;4965655;28;20035;-87
2024/02/17 11:03:19;;;;;;;10.70;7.90;;;;;;;15.14;59.00;98692.38;4934461;28;20299;-87
2024/02/17 11:05:46;;;;;;;10.32;6.72;;;;;;;15.25;57.55;98698.63;4925889;28;20031;-88
2024/02/17 11:08:12;;;;;;;9.80;7.22;;;;;;;15.09;58.73;98694.94;5024194;28;20073;-87
2024/02/17 11:10:41;;;;;;;10.70;7.63;;;;;;;15.38;58.49;98701.97;4948305;28;20026;-85
2024/02/17 11:13:20;;;;;;;12.30;7.90;;;;;;;15.66;56.14;98703.72;4967590;28;20035;-85
2024/02/17 11:16:04;;;;;;;10.50;7.72;;;;;;;15.81;55.44;98706.59;4966612;28;20491;-87
2024/02/17 11:18:37;;;;;;;9.65;7.40;;;;;;;15.67;54.59;98703.47;4949315;28;20618;-85
2024/02/17 11:21:06;;;;;;;11.75;7.78;;;;;;;15.35;55.91;98706.66;4947283;28;20490;-87
2024/02/17 11:23:33;;;;;;;10.25;6.72;;;;;;;15.35;56.17;98708.47;4929994;28;20521;-86
2024/02/17 11:25:59;;;;;;;9.55;7.20;;;;;;;15.21;57.78;98694.88;5010816;28;20039;-86
2024/02/17 11:28:27;;;;;;;10.18;8.00;;;;;;;15.04;57.32;98697.47;5049272;28;20077;-87